createdAt,value
2023-09-25T00:01:18.420Z,19.59
2023-09-25T00:03:45.638Z,19.58
2023-09-25T00:06:12.681Z,19.61
2023-09-25T00:08:39.669Z,19.58
2023-09-25T00:11:06.743Z,19.50
2023-09-25T00:13:33.776Z,19.49
2023-09-25T00:16:03.713Z,19.42
2023-09-25T00:18:30.941Z,19.35
2023-09-25T00:20:57.937Z,19.40
2023-09-25T00:23:24.933Z,19.38
2023-09-25T00:25:52.241Z,19.44
2023-09-25T00:28:19.184Z,19.38
2023-09-25T00:30:46.257Z,19.43
2023-09-25T00:33:13.924Z,19.49
2023-09-25T00:35:43.638Z,19.51
2023-09-25T00:38:11.802Z,19.39
2023-09-25T00:40:39.674Z,19.38
2023-09-25T00:43:07.240Z,19.46
2023-09-25T00:45:38.501Z,19.63
2023-09-25T00:48:06.646Z,19.61
2023-09-25T00:50:35.259Z,19.49
2023-09-25T00:53:10.362Z,19.44
2023-09-25T00:55:37.487Z,19.48
2023-09-25T00:58:07.389Z,19.54
2023-09-25T01:00:36.757Z,19.51
2023-09-25T01:03:04.528Z,19.42
2023-09-25T01:05:34.055Z,19.38
2023-09-25T01:08:00.995Z,19.38
2023-09-25T01:10:27.938Z,19.47
2023-09-25T01:12:54.912Z,19.53
2023-09-25T01:15:22.792Z,19.62
2023-09-25T01:17:49.926Z,19.74
2023-09-25T01:20:19.002Z,19.87
2023-09-25T01:22:48.220Z,19.93
2023-09-25T01:25:17.475Z,19.95
2023-09-25T01:27:46.236Z,19.99
2023-09-25T01:30:15.185Z,20.01
2023-09-25T01:32:45.699Z,20.03
2023-09-25T01:35:16.588Z,20.03
2023-09-25T01:37:43.667Z,20.14
2023-09-25T01:40:18.992Z,20.31
2023-09-25T01:42:48.850Z,20.27
2023-09-25T01:45:18.784Z,20.28
2023-09-25T01:47:54.356Z,20.30
2023-09-25T01:50:29.357Z,20.36
2023-09-25T01:52:58.467Z,20.42
2023-09-25T01:55:29.970Z,20.45
2023-09-25T01:57:57.169Z,20.43
2023-09-25T02:00:27.195Z,20.44
2023-09-25T02:02:54.318Z,20.48
2023-09-25T02:05:21.701Z,20.51
2023-09-25T02:07:49.869Z,20.47
2023-09-25T02:10:16.916Z,20.44
2023-09-25T02:12:44.882Z,20.39
2023-09-25T02:15:12.627Z,20.51
2023-09-25T02:17:39.765Z,20.48
2023-09-25T02:20:21.700Z,20.34
2023-09-25T02:22:50.084Z,20.30
2023-09-25T02:25:18.156Z,20.30
2023-09-25T02:27:47.077Z,20.32
2023-09-25T02:30:15.144Z,20.39
2023-09-25T02:32:45.133Z,20.33
2023-09-25T02:35:13.105Z,20.40
2023-09-25T02:37:42.631Z,20.36
2023-09-25T02:40:15.045Z,20.35
2023-09-25T02:42:46.855Z,20.50
2023-09-25T02:45:14.988Z,20.65
2023-09-25T02:47:42.060Z,20.31
2023-09-25T02:50:10.176Z,20.37
2023-09-25T02:52:37.765Z,20.27
2023-09-25T02:55:05.499Z,20.18
2023-09-25T02:57:32.448Z,20.22
2023-09-25T02:59:59.637Z,20.26
2023-09-25T03:02:27.524Z,20.12
2023-09-25T03:04:55.557Z,20.16
2023-09-25T03:07:22.785Z,20.14
2023-09-25T03:09:50.305Z,20.40
2023-09-25T03:12:17.457Z,20.19
2023-09-25T03:14:44.684Z,20.34
2023-09-25T03:17:11.735Z,20.14
2023-09-25T03:19:39.825Z,20.10
2023-09-25T03:22:06.812Z,20.08
2023-09-25T03:24:36.530Z,20.08
2023-09-25T03:27:03.644Z,20.08
2023-09-25T03:29:30.662Z,20.09
2023-09-25T03:31:57.822Z,20.04
2023-09-25T03:34:27.993Z,20.03
2023-09-25T03:36:55.051Z,20.03
2023-09-25T03:39:21.989Z,19.95
2023-09-25T03:41:48.983Z,19.91
2023-09-25T03:44:15.961Z,19.90
2023-09-25T03:46:43.016Z,19.90
2023-09-25T03:49:09.968Z,19.95
2023-09-25T03:51:37.016Z,19.94
2023-09-25T03:54:04.471Z,19.97
2023-09-25T03:56:31.803Z,19.96
2023-09-25T03:58:58.773Z,19.95
2023-09-25T04:01:26.825Z,19.93
2023-09-25T04:03:54.019Z,19.91
2023-09-25T04:06:21.323Z,19.88
2023-09-25T04:08:48.815Z,19.87
2023-09-25T04:11:16.102Z,19.90
2023-09-25T04:13:43.133Z,19.96
2023-09-25T04:16:13.598Z,20.04
2023-09-25T04:18:40.997Z,20.09
2023-09-25T04:21:08.261Z,20.08
2023-09-25T04:23:35.344Z,19.96
2023-09-25T04:26:02.532Z,19.99
2023-09-25T04:28:29.804Z,19.90
2023-09-25T04:30:58.612Z,19.83
2023-09-25T04:33:26.373Z,19.83
2023-09-25T04:36:00.003Z,19.91
2023-09-25T04:38:27.533Z,19.79
2023-09-25T04:40:56.101Z,19.76
2023-09-25T04:43:23.674Z,19.77
2023-09-25T04:45:53.550Z,19.72
2023-09-25T04:48:20.715Z,19.67
2023-09-25T04:50:47.895Z,19.64
2023-09-25T04:53:15.082Z,19.62
2023-09-25T04:55:43.109Z,19.63
2023-09-25T04:58:10.625Z,19.61
2023-09-25T05:00:37.791Z,19.66
2023-09-25T05:03:06.237Z,19.67
2023-09-25T05:05:34.440Z,19.68
2023-09-25T05:08:01.651Z,19.67
2023-09-25T05:10:31.009Z,19.67
2023-09-25T05:12:58.263Z,19.64
2023-09-25T05:15:25.613Z,19.63
2023-09-25T05:17:55.928Z,19.66
2023-09-25T05:20:25.507Z,19.68
2023-09-25T05:22:54.478Z,19.67
2023-09-25T05:25:23.347Z,19.66
2023-09-25T05:27:53.127Z,19.62
2023-09-25T05:30:27.251Z,19.62
2023-09-25T05:32:54.914Z,19.68
2023-09-25T05:35:26.255Z,19.73
2023-09-25T05:37:53.245Z,19.70
2023-09-25T05:40:20.396Z,19.76
2023-09-25T05:42:49.590Z,19.76
2023-09-25T05:45:18.749Z,19.78
2023-09-25T05:47:46.531Z,19.61
2023-09-25T05:50:14.359Z,19.57
2023-09-25T05:52:42.067Z,19.57
2023-09-25T05:55:10.242Z,19.64
2023-09-25T05:57:38.079Z,19.75
2023-09-25T06:00:14.229Z,19.71
2023-09-25T06:02:43.271Z,19.79
2023-09-25T06:05:14.229Z,19.84
2023-09-25T06:07:42.119Z,19.87
2023-09-25T06:10:09.977Z,20.07
2023-09-25T06:12:37.336Z,20.12
2023-09-25T06:15:11.360Z,20.24
2023-09-25T06:17:39.829Z,20.34
2023-09-25T06:20:14.836Z,20.53
2023-09-25T06:22:43.056Z,20.62
2023-09-25T06:25:13.202Z,20.73
2023-09-25T06:27:41.725Z,20.92
2023-09-25T06:30:10.928Z,20.98
2023-09-25T06:32:40.347Z,20.99
2023-09-25T06:35:08.068Z,21.09
2023-09-25T06:37:37.911Z,21.23
2023-09-25T06:40:17.353Z,21.23
2023-09-25T06:42:47.559Z,21.24
2023-09-25T06:45:23.036Z,21.31
2023-09-25T06:47:50.822Z,21.42
2023-09-25T06:50:18.406Z,21.47
2023-09-25T06:52:45.471Z,21.63
2023-09-25T06:55:20.435Z,21.64
2023-09-25T06:57:48.362Z,21.66
2023-09-25T07:00:15.691Z,21.81
2023-09-25T07:02:43.959Z,21.83
2023-09-25T07:05:11.590Z,21.93
2023-09-25T07:07:39.587Z,21.96
2023-09-25T07:10:10.819Z,22.16
2023-09-25T07:12:38.556Z,22.24
2023-09-25T07:15:06.507Z,22.48
2023-09-25T07:17:33.504Z,22.54
2023-09-25T07:20:00.628Z,22.61
2023-09-25T07:22:29.452Z,22.59
2023-09-25T07:24:57.440Z,22.56
2023-09-25T07:27:24.562Z,22.53
2023-09-25T07:29:51.688Z,22.72
2023-09-25T07:32:19.205Z,22.68
2023-09-25T07:34:46.723Z,22.70
2023-09-25T07:37:14.097Z,22.91
2023-09-25T07:39:43.360Z,23.02
2023-09-25T07:42:11.313Z,23.11
2023-09-25T07:44:39.630Z,23.19
2023-09-25T07:47:13.949Z,23.37
2023-09-25T07:49:42.873Z,23.41
2023-09-25T07:52:17.446Z,23.44
2023-09-25T07:54:47.107Z,23.60
2023-09-25T07:57:17.950Z,23.73
2023-09-25T07:59:45.248Z,23.73
2023-09-25T08:02:35.067Z,23.60
2023-09-25T08:05:04.883Z,23.54
2023-09-25T08:07:32.354Z,23.43
2023-09-25T08:10:01.468Z,23.43
2023-09-25T08:12:28.597Z,23.56
2023-09-25T08:14:56.358Z,23.51
2023-09-25T08:17:23.503Z,23.52
2023-09-25T08:19:53.957Z,23.49
2023-09-25T08:22:22.770Z,23.54
2023-09-25T08:24:53.506Z,23.52
2023-09-25T08:27:22.105Z,23.64
2023-09-25T08:29:49.280Z,23.74
2023-09-25T08:32:16.297Z,23.71
2023-09-25T08:34:43.357Z,23.57
2023-09-25T08:37:10.378Z,23.56
2023-09-25T08:39:37.328Z,23.63
2023-09-25T08:42:05.346Z,23.73
2023-09-25T08:44:33.064Z,23.72
2023-09-25T08:47:00.506Z,23.86
2023-09-25T08:49:27.945Z,24.04
2023-09-25T08:51:55.664Z,24.02
2023-09-25T08:54:24.182Z,23.94
2023-09-25T08:56:51.517Z,23.96
2023-09-25T08:59:20.364Z,23.91
2023-09-25T09:01:48.035Z,24.01
2023-09-25T09:04:17.458Z,24.16
2023-09-25T09:06:44.650Z,24.29
2023-09-25T09:09:14.002Z,24.44
2023-09-25T09:11:50.506Z,24.63
2023-09-25T09:14:45.230Z,24.80
2023-09-25T09:17:14.224Z,24.81
2023-09-25T09:20:08.621Z,24.75
2023-09-25T09:22:36.388Z,24.71
2023-09-25T09:25:03.717Z,24.64
2023-09-25T09:27:30.962Z,24.67
2023-09-25T09:29:58.700Z,24.76
2023-09-25T09:32:28.117Z,24.73
2023-09-25T09:34:55.105Z,24.94
2023-09-25T09:37:23.197Z,24.91
2023-09-25T09:39:53.953Z,24.88
2023-09-25T09:42:22.623Z,24.92
2023-09-25T09:44:49.834Z,25.01
2023-09-25T09:47:22.007Z,25.25
2023-09-25T09:49:49.770Z,25.23
2023-09-25T09:52:20.991Z,25.38
2023-09-25T09:54:49.042Z,25.46
2023-09-25T09:57:16.770Z,25.58
2023-09-25T09:59:43.805Z,25.63
2023-09-25T10:02:11.454Z,25.71
2023-09-25T10:04:38.911Z,25.74
2023-09-25T10:07:11.996Z,25.75
2023-09-25T10:09:57.926Z,25.72
2023-09-25T10:12:50.341Z,26.02
2023-09-25T10:15:29.544Z,25.86
2023-09-25T10:17:58.448Z,25.88
2023-09-25T10:20:37.793Z,25.88
2023-09-25T10:23:27.067Z,25.95
2023-09-25T10:25:58.883Z,26.23
2023-09-25T10:28:34.362Z,26.36
2023-09-25T10:31:03.795Z,26.42
2023-09-25T10:33:34.710Z,26.54
2023-09-25T10:36:03.370Z,26.79
2023-09-25T10:38:33.338Z,26.86
2023-09-25T10:41:06.260Z,26.94
2023-09-25T10:43:34.713Z,27.06
2023-09-25T10:46:03.739Z,27.03
2023-09-25T10:48:34.537Z,27.08
2023-09-25T10:51:01.781Z,27.14
2023-09-25T10:53:28.823Z,27.25
2023-09-25T10:55:55.870Z,27.35
2023-09-25T10:58:22.979Z,27.15
2023-09-25T11:00:53.259Z,27.03
2023-09-25T11:03:20.939Z,26.80
2023-09-25T11:05:49.359Z,26.90
2023-09-25T11:08:17.845Z,26.80
2023-09-25T11:10:47.047Z,26.64
2023-09-25T11:13:14.622Z,26.57
2023-09-25T11:15:43.078Z,26.44
2023-09-25T11:18:13.951Z,26.34
2023-09-25T11:20:42.647Z,26.29
2023-09-25T11:25:44.001Z,26.48
2023-09-25T11:28:15.242Z,26.65
2023-09-25T11:30:44.030Z,26.71
2023-09-25T11:33:11.492Z,26.89
2023-09-25T11:35:39.666Z,27.04
2023-09-25T11:38:26.850Z,26.86
2023-09-25T11:40:54.575Z,26.82
2023-09-25T11:43:25.746Z,26.75
2023-09-25T11:45:54.010Z,26.64
2023-09-25T11:48:21.496Z,26.75
2023-09-25T11:50:50.015Z,27.01
2023-09-25T11:53:17.118Z,27.16
2023-09-25T11:55:44.594Z,27.37
2023-09-25T11:58:11.756Z,27.54
2023-09-25T12:00:39.334Z,27.76
2023-09-25T12:03:09.941Z,27.81
2023-09-25T12:05:37.892Z,27.90
2023-09-25T12:08:07.342Z,27.94
2023-09-25T12:10:40.860Z,28.05
2023-09-25T12:13:09.050Z,28.31
2023-09-25T12:15:37.238Z,28.66
2023-09-25T12:18:05.823Z,29.03
2023-09-25T12:20:43.459Z,29.02
2023-09-25T12:23:10.759Z,28.89
2023-09-25T12:25:37.993Z,28.88
2023-09-25T12:28:06.510Z,28.60
2023-09-25T12:30:34.218Z,28.40
2023-09-25T12:33:02.546Z,28.19
2023-09-25T12:35:29.706Z,28.18
2023-09-25T12:37:57.572Z,27.99
2023-09-25T12:40:25.577Z,27.87
2023-09-25T12:42:56.073Z,27.81
2023-09-25T12:45:24.362Z,27.91
2023-09-25T12:47:52.249Z,28.11
2023-09-25T12:50:19.877Z,28.41
2023-09-25T12:52:48.003Z,28.81
2023-09-25T12:55:15.614Z,29.35
2023-09-25T12:57:43.278Z,29.67
2023-09-25T13:00:11.025Z,29.77
2023-09-25T13:02:38.160Z,29.57
2023-09-25T13:05:10.444Z,29.48
2023-09-25T13:07:37.947Z,29.54
2023-09-25T13:10:07.525Z,29.89
2023-09-25T13:12:34.658Z,30.19
2023-09-25T13:15:04.164Z,30.40
2023-09-25T13:17:31.923Z,30.44
2023-09-25T13:20:00.772Z,30.57
2023-09-25T13:22:36.589Z,30.67
2023-09-25T13:25:06.103Z,30.90
2023-09-25T13:27:33.633Z,31.09
2023-09-25T13:30:00.976Z,31.16
2023-09-25T13:32:31.522Z,31.24
2023-09-25T13:34:58.593Z,31.39
2023-09-25T13:37:25.650Z,31.44
2023-09-25T13:39:54.517Z,31.59
2023-09-25T13:42:21.777Z,31.69
2023-09-25T13:44:48.810Z,31.52
2023-09-25T13:47:16.050Z,31.43
2023-09-25T13:49:45.409Z,31.26
2023-09-25T13:52:12.950Z,31.28
2023-09-25T13:54:40.398Z,31.39
2023-09-25T13:57:07.780Z,31.70
2023-09-25T13:59:35.003Z,32.11
2023-09-25T14:02:02.070Z,32.28
2023-09-25T14:04:31.812Z,32.23
2023-09-25T14:06:59.024Z,32.49
2023-09-25T14:09:26.265Z,32.50
2023-09-25T14:11:54.728Z,32.45
2023-09-25T14:14:23.245Z,32.33
2023-09-25T14:16:51.047Z,32.19
2023-09-25T14:19:18.015Z,32.27
2023-09-25T14:21:45.117Z,32.21
2023-09-25T14:24:12.083Z,32.32
2023-09-25T14:26:39.835Z,32.41
2023-09-25T14:29:07.244Z,32.38
2023-09-25T14:31:41.962Z,32.44
2023-09-25T14:34:09.058Z,32.44
2023-09-25T14:36:36.252Z,32.61
2023-09-25T14:39:04.114Z,32.47
2023-09-25T14:41:31.142Z,32.36
2023-09-25T14:43:58.121Z,32.12
2023-09-25T14:46:25.311Z,31.95
2023-09-25T14:48:52.538Z,31.92
2023-09-25T14:51:19.584Z,31.83
2023-09-25T14:53:46.740Z,31.82
2023-09-25T14:56:14.048Z,32.05
2023-09-25T14:58:41.796Z,32.68
2023-09-25T15:01:11.817Z,33.51
2023-09-25T15:03:39.076Z,34.28
2023-09-25T15:06:07.270Z,35.18
2023-09-25T15:08:34.280Z,35.23
2023-09-25T15:11:01.417Z,35.26
2023-09-25T15:13:28.528Z,35.52
2023-09-25T15:15:55.746Z,34.64
2023-09-25T15:18:23.329Z,33.62
2023-09-25T15:20:50.569Z,32.49
2023-09-25T15:23:17.895Z,31.69
2023-09-25T15:25:44.921Z,31.08
2023-09-25T15:28:12.357Z,31.12
2023-09-25T15:30:39.612Z,31.37
2023-09-25T15:33:06.707Z,30.88
2023-09-25T15:35:33.778Z,30.28
2023-09-25T15:38:00.860Z,29.84
2023-09-25T15:40:28.265Z,29.46
2023-09-25T15:42:55.437Z,29.16
2023-09-25T15:45:22.454Z,28.77
2023-09-25T15:47:49.519Z,28.48
2023-09-25T15:50:16.576Z,28.19
2023-09-25T15:52:43.576Z,27.76
2023-09-25T15:55:11.057Z,27.48
2023-09-25T15:57:38.149Z,27.37
2023-09-25T16:00:07.811Z,27.11
2023-09-25T16:02:35.395Z,26.86
2023-09-25T16:05:03.672Z,26.69
2023-09-25T16:07:31.092Z,26.44
2023-09-25T16:09:58.194Z,26.14
2023-09-25T16:12:26.190Z,25.92
2023-09-25T16:14:55.884Z,25.83
2023-09-25T16:17:23.026Z,25.75
2023-09-25T16:19:50.045Z,25.72
2023-09-25T16:22:17.194Z,25.55
2023-09-25T16:24:44.411Z,25.45
2023-09-25T16:27:11.495Z,25.41
2023-09-25T16:29:38.509Z,25.50
2023-09-25T16:32:05.958Z,25.27
2023-09-25T16:34:32.909Z,25.19
2023-09-25T16:36:59.946Z,25.12
2023-09-25T16:39:30.329Z,25.14
2023-09-25T16:41:59.822Z,25.24
2023-09-25T16:44:27.498Z,25.09
2023-09-25T16:46:54.611Z,25.05
2023-09-25T16:49:22.613Z,24.93
2023-09-25T16:51:49.866Z,24.78
2023-09-25T16:54:16.800Z,24.74
2023-09-25T16:56:43.784Z,24.72
2023-09-25T16:59:11.995Z,24.68
2023-09-25T17:01:39.033Z,24.64
2023-09-25T17:04:06.477Z,24.63
2023-09-25T17:06:33.465Z,24.47
2023-09-25T17:09:00.557Z,24.40
2023-09-25T17:11:33.708Z,24.29
2023-09-25T17:14:01.621Z,24.22
2023-09-25T17:16:32.159Z,24.16
2023-09-25T17:18:59.909Z,24.20
2023-09-25T17:21:27.134Z,24.24
2023-09-25T17:23:54.591Z,24.15
2023-09-25T17:26:21.980Z,24.12
2023-09-25T17:28:51.252Z,24.08
2023-09-25T17:31:18.465Z,24.10
2023-09-25T17:33:46.044Z,23.95
2023-09-25T17:36:13.116Z,23.84
2023-09-25T17:38:40.150Z,23.92
2023-09-25T17:41:11.462Z,23.90
2023-09-25T17:43:39.014Z,23.89
2023-09-25T17:46:07.375Z,23.86
2023-09-25T17:48:36.095Z,23.87
2023-09-25T17:51:03.782Z,23.90
2023-09-25T17:53:30.900Z,23.94
2023-09-25T17:55:58.246Z,23.96
2023-09-25T17:58:30.190Z,23.95
2023-09-25T18:00:59.972Z,23.94
2023-09-25T18:03:27.976Z,23.97
2023-09-25T18:05:55.088Z,23.85
2023-09-25T18:08:22.136Z,23.87
2023-09-25T18:10:49.084Z,23.83
2023-09-25T18:13:18.157Z,23.75
2023-09-25T18:15:47.243Z,23.75
2023-09-25T18:18:14.598Z,23.71
2023-09-25T18:20:41.703Z,23.63
2023-09-25T18:23:08.738Z,23.61
2023-09-25T18:25:38.997Z,23.57
2023-09-25T18:28:06.351Z,23.52
2023-09-25T18:30:33.564Z,23.57
2023-09-25T18:33:02.334Z,23.63
2023-09-25T18:35:29.563Z,23.59
2023-09-25T18:37:56.596Z,23.54
2023-09-25T18:40:23.677Z,23.51
2023-09-25T18:42:50.716Z,23.50
2023-09-25T18:45:17.756Z,23.50
2023-09-25T18:47:45.194Z,23.55
2023-09-25T18:50:12.225Z,23.45
2023-09-25T18:52:39.259Z,23.45
2023-09-25T18:55:07.438Z,23.44
2023-09-25T18:57:34.545Z,23.38
2023-09-25T19:00:01.694Z,23.40
2023-09-25T19:02:28.678Z,23.35
2023-09-25T19:04:56.258Z,23.35
2023-09-25T19:07:23.513Z,23.32
2023-09-25T19:09:53.754Z,23.38
2023-09-25T19:12:20.915Z,23.32
2023-09-25T19:14:48.052Z,23.36
2023-09-25T19:17:15.026Z,23.23
2023-09-25T19:19:42.087Z,23.16
2023-09-25T19:22:10.084Z,23.16
2023-09-25T19:24:37.418Z,23.13
2023-09-25T19:27:05.611Z,23.25
2023-09-25T19:29:32.818Z,23.17
2023-09-25T19:32:00.206Z,23.12
2023-09-25T19:34:27.415Z,23.10
2023-09-25T19:36:54.484Z,23.05
2023-09-25T19:39:21.548Z,23.07
2023-09-25T19:41:48.657Z,23.03
2023-09-25T19:44:15.698Z,22.94
2023-09-25T19:46:42.843Z,22.87
2023-09-25T19:49:09.883Z,22.83
2023-09-25T19:51:39.750Z,22.86
2023-09-25T19:54:07.955Z,22.78
2023-09-25T19:56:34.901Z,22.82
2023-09-25T19:59:01.952Z,22.88
2023-09-25T20:01:29.583Z,22.81
2023-09-25T20:03:56.847Z,22.75
2023-09-25T20:06:24.179Z,22.65
2023-09-25T20:08:51.289Z,22.60
2023-09-25T20:11:18.383Z,22.53
2023-09-25T20:13:45.649Z,22.73
2023-09-25T20:16:12.892Z,22.51
2023-09-25T20:18:39.933Z,22.40
2023-09-25T20:21:06.978Z,22.52
2023-09-25T20:23:34.385Z,22.38
2023-09-25T20:26:06.729Z,22.28
2023-09-25T20:28:33.677Z,22.30
2023-09-25T20:31:00.722Z,22.22
2023-09-25T20:33:28.068Z,22.18
2023-09-25T20:35:56.057Z,22.18
2023-09-25T20:38:25.218Z,22.12
2023-09-25T20:40:52.551Z,22.07
2023-09-25T20:43:19.964Z,22.11
2023-09-25T20:45:47.035Z,22.30
2023-09-25T20:48:13.978Z,22.18
2023-09-25T20:50:41.419Z,21.96
2023-09-25T20:53:08.406Z,22.06
2023-09-25T20:55:35.813Z,21.97
2023-09-25T20:58:04.623Z,21.98
2023-09-25T21:00:32.019Z,22.07
2023-09-25T21:02:59.518Z,21.96
2023-09-25T21:05:27.582Z,21.91
2023-09-25T21:07:56.001Z,21.91
2023-09-25T21:10:23.398Z,21.82
2023-09-25T21:12:50.539Z,21.81
2023-09-25T21:15:17.733Z,21.78
2023-09-25T21:17:44.816Z,21.70
2023-09-25T21:20:12.737Z,21.68
2023-09-25T21:22:39.829Z,21.69
2023-09-25T21:25:10.880Z,21.71
2023-09-25T21:27:38.765Z,21.80
2023-09-25T21:30:07.713Z,21.77
2023-09-25T21:32:36.416Z,21.89
2023-09-25T21:35:04.436Z,21.75
2023-09-25T21:37:31.458Z,21.70
2023-09-25T21:39:58.499Z,21.61
2023-09-25T21:42:25.702Z,21.56
2023-09-25T21:44:52.877Z,21.50
2023-09-25T21:47:20.728Z,21.48
2023-09-25T21:49:47.757Z,21.49
2023-09-25T21:52:14.733Z,21.54
2023-09-25T21:54:42.795Z,21.53
2023-09-25T21:57:09.879Z,21.49
2023-09-25T21:59:36.838Z,21.43
2023-09-25T22:02:05.534Z,21.48
2023-09-25T22:04:32.657Z,21.47
2023-09-25T22:07:00.816Z,21.35
2023-09-25T22:09:27.950Z,21.27
2023-09-25T22:11:56.112Z,21.34
2023-09-25T22:14:23.404Z,21.38
2023-09-25T22:16:50.978Z,21.28
2023-09-25T22:19:19.800Z,21.29
2023-09-25T22:21:48.403Z,21.21
2023-09-25T22:24:16.478Z,21.17
2023-09-25T22:26:43.939Z,21.13
2023-09-25T22:29:11.207Z,21.09
2023-09-25T22:31:43.334Z,21.06
2023-09-25T22:34:10.386Z,21.08
2023-09-25T22:36:37.311Z,21.07
2023-09-25T22:39:08.206Z,21.07
2023-09-25T22:41:35.026Z,21.03
2023-09-25T22:44:01.970Z,20.99
2023-09-25T22:46:29.008Z,20.93
2023-09-25T22:48:56.070Z,21.03
2023-09-25T22:51:23.083Z,20.95
2023-09-25T22:53:50.155Z,20.94
2023-09-25T22:56:17.215Z,20.91
2023-09-25T22:58:44.160Z,20.86
2023-09-25T23:01:11.465Z,20.87
2023-09-25T23:03:38.641Z,20.78
2023-09-25T23:06:05.749Z,20.68
2023-09-25T23:08:32.878Z,20.59
2023-09-25T23:10:59.902Z,20.56
2023-09-25T23:13:27.096Z,20.55
2023-09-25T23:15:54.248Z,20.59
2023-09-25T23:18:21.681Z,20.57
2023-09-25T23:20:52.744Z,20.64
2023-09-25T23:23:19.726Z,20.54
2023-09-25T23:25:46.810Z,20.54
2023-09-25T23:28:14.544Z,20.55
2023-09-25T23:30:41.768Z,20.51
2023-09-25T23:33:51.883Z,20.49
2023-09-25T23:36:19.635Z,20.42
2023-09-25T23:38:46.678Z,20.38
2023-09-25T23:41:13.640Z,20.37
2023-09-25T23:43:40.991Z,20.36
2023-09-25T23:46:08.066Z,20.31
2023-09-25T23:48:37.603Z,20.24
2023-09-25T23:51:05.014Z,20.26
2023-09-25T23:53:34.027Z,20.22
2023-09-25T23:56:05.081Z,20.19
2023-09-25T23:58:32.952Z,20.18
